Terminal Aerodrome Forecast
Issued by NWS Brownsville, TX

Home | Current Version | Previous Version | Text Only | Print | Product List | Glossary On
Versions: 1 2 3 4 5 6 7 8 9 10 11 12 13 14 15
000
FTUS44 KBRO 290700 RRA
TAFHRL
TAF
KHRL 290712Z 2907/3006 12005KT P6SM SKC
     FM290900 VRB03KT P6SM FEW015
     FM291400 16009KT P6SM FEW035
     FM291800 14013G19KT P6SM FEW060
     FM300300 13007KT P6SM SKC=

USA.gov is the U.S. government's official web portal to all federal, state and local government web resources and services.